Time;durP1;ratioP1;P1;durP2;ratioP2;P2;SDS_P1;SDS_P2;PMS_P1;PMS_P2;Temp;Humidity;BMP_temperature;BMP_pressure;BME280_temperature;BME280_humidity;BME280_pressure;Samples;Min_cycle;Max_cycle;Signal;HPM_P1;HPM_P2
2023/07/03 00:00:33;;;;;;;32.55;12.18;;;;;;;;;;5096855;28;20451;-65
2023/07/03 00:02:59;;;;;;;24.73;12.38;;;;;;;;;;5078257;28;20024;-64
2023/07/03 00:05:25;;;;;;;23.10;11.65;;;;;;;;;;5096391;28;20024;-62
2023/07/03 00:07:51;;;;;;;22.05;11.98;;;;;;;;;;5078485;28;20020;-65
2023/07/03 00:10:21;;;;;;;24.90;11.93;;;;;;;;;;5078835;28;20023;-61
2023/07/03 00:12:47;;;;;;;23.67;11.65;;;;;;;;;;5076424;28;20016;-64
2023/07/03 00:15:13;;;;;;;26.20;12.70;;;;;;;;;;5094172;28;20040;-63
2023/07/03 00:17:39;;;;;;;25.10;11.10;;;;;;;;;;5077352;28;20026;-65
2023/07/03 00:20:06;;;;;;;27.58;12.48;;;;;;;;;;5096907;28;20515;-63
2023/07/03 00:22:32;;;;;;;24.27;10.70;;;;;;;;;;5095728;28;20111;-65
2023/07/03 00:24:58;;;;;;;26.10;12.32;;;;;;;;;;5095433;28;20055;-65
2023/07/03 00:27:24;;;;;;;23.95;10.90;;;;;;;;;;5096510;28;20028;-65
2023/07/03 00:29:50;;;;;;;24.52;11.40;;;;;;;;;;5078218;28;20494;-65
2023/07/03 00:32:16;;;;;;;21.75;10.65;;;;;;;;;;5096186;28;20032;-64
2023/07/03 00:34:42;;;;;;;26.70;11.32;;;;;;;;;;5096088;28;20472;-64
2023/07/03 00:37:08;;;;;;;26.17;11.25;;;;;;;;;;5096060;28;20081;-63
2023/07/03 00:39:34;;;;;;;24.45;11.10;;;;;;;;;;5096374;28;20196;-64
2023/07/03 00:42:00;;;;;;;21.10;10.50;;;;;;;;;;5097058;28;20028;-64
2023/07/03 00:44:26;;;;;;;24.42;10.98;;;;;;;;;;5078463;28;20027;-65
2023/07/03 00:46:52;;;;;;;29.00;12.57;;;;;;;;;;5079071;28;20421;-65
2023/07/03 00:49:20;;;;;;;20.75;10.68;;;;;;;;;;5096330;28;20099;-64
2023/07/03 00:51:52;;;;;;;25.42;11.63;;;;;;;;;;5095750;28;20036;-67
2023/07/03 00:54:18;;;;;;;21.73;11.10;;;;;;;;;;5095970;28;20628;-66
2023/07/03 00:56:44;;;;;;;24.02;10.57;;;;;;;;;;5077881;28;20039;-65
2023/07/03 00:59:10;;;;;;;20.75;10.90;;;;;;;;;;5096093;28;20028;-66
2023/07/03 01:01:36;;;;;;;25.25;10.93;;;;;;;;;;5095978;28;20035;-65
2023/07/03 01:04:06;;;;;;;25.80;11.45;;;;;;;;;;5094954;28;20067;-65
2023/07/03 01:06:39;;;;;;;24.42;10.88;;;;;;;;;;5095743;28;20081;-66
2023/07/03 01:09:07;;;;;;;25.05;11.65;;;;;;;;;;5095173;28;20020;-64
2023/07/03 01:11:33;;;;;;;25.83;10.73;;;;;;;;;;5095271;28;20024;-64
2023/07/03 01:14:00;;;;;;;23.63;10.88;;;;;;;;;;5095575;28;20335;-64
2023/07/03 01:16:26;;;;;;;26.35;11.68;;;;;;;;;;5095166;28;20024;-63
2023/07/03 01:18:53;;;;;;;25.30;11.48;;;;;;;;;;5095238;28;20036;-64
2023/07/03 01:21:22;;;;;;;23.13;11.45;;;;;;;;;;5095120;28;20042;-62
2023/07/03 01:23:52;;;;;;;29.65;10.95;;;;;;;;;;5095338;28;20119;-64
2023/07/03 01:26:19;;;;;;;27.13;10.60;;;;;;;;;;5095584;28;20054;-63
2023/07/03 01:28:46;;;;;;;23.85;10.43;;;;;;;;;;5095115;28;20074;-63
2023/07/03 01:31:14;;;;;;;22.30;10.93;;;;;;;;;;5076855;28;20107;-64
2023/07/03 01:33:44;;;;;;;22.08;12.00;;;;;;;;;;5095570;28;20038;-63
2023/07/03 01:36:12;;;;;;;23.02;10.90;;;;;;;;;;5076672;28;20024;-62
2023/07/03 01:38:39;;;;;;;23.97;11.00;;;;;;;;;;5095729;28;20024;-62
2023/07/03 01:41:05;;;;;;;24.35;10.40;;;;;;;;;;5095882;28;20293;-60
2023/07/03 01:43:31;;;;;;;23.33;10.77;;;;;;;;;;5095926;28;20024;-60
2023/07/03 01:45:57;;;;;;;26.60;11.18;;;;;;;;;;5095816;28;20024;-59
2023/07/03 01:48:24;;;;;;;28.77;10.63;;;;;;;;;;5094229;28;20024;-61
2023/07/03 01:50:50;;;;;;;21.67;10.93;;;;;;;;;;5091503;28;20029;-59
2023/07/03 01:53:16;;;;;;;22.10;9.90;;;;;;;;;;5075139;28;20052;-61
2023/07/03 01:56:05;;;;;;;20.60;10.00;;;;;;;;;;5074962;28;20065;-61
2023/07/03 01:58:36;;;;;;;20.60;10.30;;;;;;;;;;5061868;28;20093;-61
2023/07/03 02:01:05;;;;;;;23.48;11.18;;;;;;;;;;5057027;28;20047;-60
2023/07/03 02:03:42;;;;;;;24.30;10.48;;;;;;;;;;5090163;28;20108;-62
2023/07/03 02:06:11;;;;;;;24.92;10.93;;;;;;;;;;5093092;28;20043;-60
2023/07/03 02:08:38;;;;;;;21.33;10.75;;;;;;;;;;5100046;28;20074;-61
2023/07/03 02:11:04;;;;;;;21.45;10.05;;;;;;;;;;5093110;28;20480;-62
2023/07/03 02:13:30;;;;;;;21.58;9.95;;;;;;;;;;5096833;28;20469;-62
2023/07/03 02:15:56;;;;;;;22.77;11.20;;;;;;;;;;5081092;28;20500;-63
2023/07/03 02:18:23;;;;;;;19.17;9.93;;;;;;;;;;5072561;28;20025;-62
2023/07/03 02:20:49;;;;;;;21.83;9.52;;;;;;;;;;5098472;28;20021;-61
2023/07/03 02:23:15;;;;;;;21.13;10.20;;;;;;;;;;5099363;28;20042;-61
2023/07/03 02:25:43;;;;;;;22.67;10.88;;;;;;;;;;5098416;28;20468;-55
2023/07/03 02:28:09;;;;;;;23.35;10.15;;;;;;;;;;5098593;28;20038;-60
2023/07/03 02:30:35;;;;;;;22.13;10.10;;;;;;;;;;5097874;28;20038;-61
2023/07/03 02:33:01;;;;;;;21.88;11.43;;;;;;;;;;5098014;28;20091;-60
2023/07/03 02:35:27;;;;;;;20.27;9.95;;;;;;;;;;5097866;28;20059;-60
2023/07/03 02:37:53;;;;;;;23.27;11.73;;;;;;;;;;5098829;28;20444;-60
2023/07/03 02:40:19;;;;;;;20.73;10.07;;;;;;;;;;5080363;28;20020;-62
2023/07/03 02:42:45;;;;;;;22.35;10.82;;;;;;;;;;5098151;28;20467;-62
2023/07/03 02:45:11;;;;;;;21.27;9.88;;;;;;;;;;5080168;28;20073;-57
2023/07/03 02:47:38;;;;;;;22.98;9.70;;;;;;;;;;5098804;28;20066;-60
2023/07/03 02:50:04;;;;;;;29.58;11.73;;;;;;;;;;5098684;28;20016;-59
2023/07/03 02:52:30;;;;;;;21.88;9.95;;;;;;;;;;5097771;28;20376;-60
2023/07/03 02:54:56;;;;;;;22.73;10.10;;;;;;;;;;5097759;28;20028;-59
2023/07/03 02:57:22;;;;;;;23.33;9.77;;;;;;;;;;5098406;28;20047;-60
2023/07/03 02:59:48;;;;;;;22.65;10.98;;;;;;;;;;5098216;28;20016;-60
2023/07/03 03:02:14;;;;;;;24.67;10.55;;;;;;;;;;5079512;28;20024;-59
2023/07/03 03:04:40;;;;;;;22.88;9.20;;;;;;;;;;5079886;28;20032;-61
2023/07/03 03:07:06;;;;;;;22.42;10.43;;;;;;;;;;5079936;28;20459;-62
2023/07/03 03:09:32;;;;;;;25.85;10.38;;;;;;;;;;5097708;28;20044;-60
2023/07/03 03:11:58;;;;;;;23.15;11.05;;;;;;;;;;5079605;28;20054;-60
2023/07/03 03:14:24;;;;;;;23.27;11.07;;;;;;;;;;5097901;28;20024;-60
2023/07/03 03:16:50;;;;;;;23.58;11.45;;;;;;;;;;5096687;28;20392;-62
2023/07/03 03:19:16;;;;;;;25.92;10.75;;;;;;;;;;5097755;28;20035;-57
2023/07/03 03:21:43;;;;;;;22.40;10.65;;;;;;;;;;5097687;28;20028;-61
2023/07/03 03:24:09;;;;;;;21.60;10.75;;;;;;;;;;5097266;28;20020;-56
2023/07/03 03:26:35;;;;;;;23.17;9.90;;;;;;;;;;5079096;28;20027;-60
2023/07/03 03:29:01;;;;;;;22.33;9.90;;;;;;;;;;5097343;28;20379;-61
2023/07/03 03:31:28;;;;;;;30.92;10.82;;;;;;;;;;5097131;28;20027;-56
2023/07/03 03:33:54;;;;;;;19.30;9.25;;;;;;;;;;5096749;28;20060;-61
2023/07/03 03:36:20;;;;;;;22.63;9.40;;;;;;;;;;5078365;28;20095;-60
2023/07/03 03:38:46;;;;;;;20.95;9.15;;;;;;;;;;5096741;28;20028;-60
2023/07/03 03:41:12;;;;;;;22.27;10.75;;;;;;;;;;5078734;28;20054;-62
2023/07/03 03:43:38;;;;;;;24.50;11.00;;;;;;;;;;5096423;28;20662;-59
2023/07/03 03:46:04;;;;;;;25.90;10.15;;;;;;;;;;5096761;28;20024;-60
2023/07/03 03:48:30;;;;;;;23.30;10.23;;;;;;;;;;5096530;28;20032;-62
2023/07/03 03:50:56;;;;;;;22.88;10.20;;;;;;;;;;5095851;28;20024;-61
2023/07/03 03:53:23;;;;;;;23.38;10.60;;;;;;;;;;5096652;28;20406;-59
2023/07/03 03:55:50;;;;;;;19.80;9.50;;;;;;;;;;5095832;28;20510;-60
2023/07/03 03:58:16;;;;;;;22.95;10.05;;;;;;;;;;5096302;28;20477;-59
2023/07/03 04:00:43;;;;;;;25.40;10.10;;;;;;;;;;5095772;28;20077;-59
2023/07/03 04:03:09;;;;;;;21.02;9.77;;;;;;;;;;5095984;28;20031;-59
2023/07/03 04:05:35;;;;;;;24.13;9.90;;;;;;;;;;5095530;28;20020;-63
2023/07/03 04:08:01;;;;;;;27.38;11.65;;;;;;;;;;5095699;28;20423;-57
2023/07/03 04:10:27;;;;;;;21.58;10.43;;;;;;;;;;5077107;28;20088;-57
2023/07/03 04:12:53;;;;;;;22.00;10.05;;;;;;;;;;5078302;28;20027;-62
2023/07/03 04:15:19;;;;;;;22.58;9.73;;;;;;;;;;5095935;28;20028;-60
2023/07/03 04:17:45;;;;;;;24.13;11.65;;;;;;;;;;5095923;28;20054;-59
2023/07/03 04:20:13;;;;;;;25.23;11.10;;;;;;;;;;5077792;28;20088;-59
2023/07/03 04:22:39;;;;;;;24.95;11.18;;;;;;;;;;5096437;28;20085;-62
2023/07/03 04:25:06;;;;;;;30.02;11.57;;;;;;;;;;5095830;28;20032;-61
2023/07/03 04:27:32;;;;;;;27.23;11.93;;;;;;;;;;5077412;28;20016;-62
2023/07/03 04:29:58;;;;;;;26.90;10.57;;;;;;;;;;5096351;28;20533;-58
2023/07/03 04:32:24;;;;;;;25.33;10.85;;;;;;;;;;5096040;28;20024;-59
2023/07/03 04:34:50;;;;;;;27.35;11.05;;;;;;;;;;5096982;28;20099;-62
2023/07/03 04:37:17;;;;;;;22.02;10.63;;;;;;;;;;5096356;28;20030;-61
2023/07/03 04:39:43;;;;;;;22.98;11.52;;;;;;;;;;5096394;28;20505;-59
2023/07/03 04:42:13;;;;;;;25.98;11.27;;;;;;;;;;5096006;28;20036;-60
2023/07/03 04:44:39;;;;;;;25.10;10.55;;;;;;;;;;5095787;28;20046;-60
2023/07/03 04:47:06;;;;;;;29.70;11.25;;;;;;;;;;5095069;28;20035;-60
2023/07/03 04:49:32;;;;;;;25.50;11.80;;;;;;;;;;5095410;28;20020;-61
2023/07/03 04:51:58;;;;;;;23.67;11.13;;;;;;;;;;5095273;28;20040;-60
2023/07/03 04:54:27;;;;;;;21.92;10.48;;;;;;;;;;5095699;28;20409;-59
2023/07/03 04:56:53;;;;;;;25.85;11.65;;;;;;;;;;5096092;28;20020;-60
2023/07/03 04:59:19;;;;;;;23.75;10.98;;;;;;;;;;5096733;28;20020;-62
2023/07/03 05:01:45;;;;;;;23.48;10.98;;;;;;;;;;5096374;28;20050;-60
2023/07/03 05:04:11;;;;;;;25.02;12.00;;;;;;;;;;5090540;28;20032;-60
2023/07/03 05:06:37;;;;;;;27.08;10.73;;;;;;;;;;5087297;28;20024;-60
2023/07/03 05:09:04;;;;;;;30.13;11.82;;;;;;;;;;5077902;28;20052;-60
2023/07/03 05:11:31;;;;;;;23.17;10.75;;;;;;;;;;5088078;28;20016;-59
2023/07/03 05:13:57;;;;;;;26.88;11.45;;;;;;;;;;5096255;28;20081;-62
2023/07/03 05:16:23;;;;;;;23.38;10.90;;;;;;;;;;5096279;28;20054;-61
2023/07/03 05:18:49;;;;;;;26.27;11.20;;;;;;;;;;5096537;28;20024;-60
2023/07/03 05:21:15;;;;;;;26.25;12.10;;;;;;;;;;5095872;28;20025;-61
2023/07/03 05:23:41;;;;;;;28.40;10.73;;;;;;;;;;5095577;28;20182;-63
2023/07/03 05:26:07;;;;;;;26.50;10.88;;;;;;;;;;5077843;28;20020;-63
2023/07/03 05:28:34;;;;;;;30.23;13.23;;;;;;;;;;5095719;28;20035;-62
2023/07/03 05:31:00;;;;;;;31.80;12.57;;;;;;;;;;5095654;28;20027;-60
2023/07/03 05:33:27;;;;;;;24.42;10.65;;;;;;;;;;5095518;28;20089;-59
2023/07/03 05:35:53;;;;;;;31.30;11.20;;;;;;;;;;5095785;28;20020;-63
2023/07/03 05:38:19;;;;;;;25.17;11.10;;;;;;;;;;5070051;28;20017;-62
2023/07/03 05:40:46;;;;;;;24.52;10.93;;;;;;;;;;5056479;28;20029;-62
2023/07/03 05:43:13;;;;;;;28.52;11.45;;;;;;;;;;5075180;28;20534;-61
2023/07/03 05:45:40;;;;;;;30.42;12.95;;;;;;;;;;5075508;28;20053;-60
2023/07/03 05:48:06;;;;;;;21.38;9.85;;;;;;;;;;5075777;28;20024;-58
2023/07/03 05:50:32;;;;;;;32.67;11.32;;;;;;;;;;5075531;28;20084;-63
2023/07/03 05:52:59;;;;;;;26.02;10.18;;;;;;;;;;5067186;22;20052;-59
2023/07/03 05:55:24;;;;;;;27.98;11.98;;;;;;;;;;5061863;28;20120;-59
2023/07/03 05:57:50;;;;;;;30.13;12.20;;;;;;;;;;5071297;28;20071;-59
2023/07/03 06:00:17;;;;;;;31.23;11.70;;;;;;;;;;5052873;28;20024;-59
2023/07/03 06:02:44;;;;;;;32.95;12.90;;;;;;;;;;5053396;28;20025;-59
2023/07/03 06:05:11;;;;;;;26.98;11.18;;;;;;;;;;5043276;28;20482;-58
2023/07/03 06:07:37;;;;;;;27.50;11.93;;;;;;;;;;5030620;28;20013;-58
2023/07/03 06:10:04;;;;;;;30.00;11.52;;;;;;;;;;5041321;28;20024;-57
2023/07/03 06:12:30;;;;;;;29.63;11.95;;;;;;;;;;5030030;28;20053;-58
2023/07/03 06:14:59;;;;;;;33.22;11.65;;;;;;;;;;5050538;28;20032;-57
2023/07/03 06:17:26;;;;;;;25.83;10.95;;;;;;;;;;5050898;28;20025;-58
2023/07/03 06:19:52;;;;;;;22.52;10.57;;;;;;;;;;5033090;28;20025;-58
2023/07/03 06:22:19;;;;;;;27.85;12.35;;;;;;;;;;5050752;28;20112;-59
2023/07/03 06:24:45;;;;;;;30.75;11.20;;;;;;;;;;5050286;28;20402;-57
2023/07/03 06:27:12;;;;;;;27.08;12.30;;;;;;;;;;5044550;28;20032;-59
2023/07/03 06:29:38;;;;;;;25.67;10.90;;;;;;;;;;5043521;28;20034;-60
2023/07/03 06:32:04;;;;;;;27.30;10.30;;;;;;;;;;5030724;28;20021;-59
2023/07/03 06:34:30;;;;;;;26.50;11.57;;;;;;;;;;5015465;28;20062;-59
2023/07/03 06:36:56;;;;;;;31.10;13.13;;;;;;;;;;5033081;28;20481;-59
2023/07/03 06:39:22;;;;;;;26.88;10.50;;;;;;;;;;5050745;28;20112;-59
2023/07/03 06:41:48;;;;;;;27.90;11.52;;;;;;;;;;5050529;28;20060;-60
2023/07/03 06:44:15;;;;;;;28.30;11.15;;;;;;;;;;5037491;28;20393;-59
2023/07/03 06:46:41;;;;;;;28.23;10.90;;;;;;;;;;5030561;28;20021;-60
2023/07/03 06:49:08;;;;;;;29.40;10.70;;;;;;;;;;5030604;28;20125;-61
2023/07/03 06:51:34;;;;;;;34.05;11.98;;;;;;;;;;5033165;28;20038;-60
2023/07/03 06:54:00;;;;;;;38.38;13.25;;;;;;;;;;5033904;28;20389;-59
2023/07/03 06:56:26;;;;;;;26.05;11.90;;;;;;;;;;5034114;28;20120;-60
2023/07/03 06:58:52;;;;;;;26.42;10.57;;;;;;;;;;5033990;28;20072;-60
2023/07/03 07:01:19;;;;;;;25.52;11.35;;;;;;;;;;5046355;28;20044;-60
2023/07/03 07:03:45;;;;;;;36.92;14.50;;;;;;;;;;5053801;28;20021;-61
2023/07/03 07:06:15;;;;;;;30.10;12.38;;;;;;;;;;5035786;28;20116;-61
2023/07/03 07:08:42;;;;;;;26.48;11.75;;;;;;;;;;5053858;28;20070;-60
2023/07/03 07:11:09;;;;;;;27.63;13.25;;;;;;;;;;5053670;28;20030;-59
2023/07/03 07:13:35;;;;;;;28.05;11.90;;;;;;;;;;5054055;28;20025;-58
2023/07/03 07:16:01;;;;;;;26.90;12.00;;;;;;;;;;5053126;28;20029;-60
2023/07/03 07:18:27;;;;;;;27.05;12.13;;;;;;;;;;5035720;28;20031;-60
2023/07/03 07:20:54;;;;;;;28.67;12.32;;;;;;;;;;5053605;28;20469;-60
2023/07/03 07:23:20;;;;;;;25.52;11.02;;;;;;;;;;5035655;28;20036;-57
2023/07/03 07:25:52;;;;;;;23.73;11.30;;;;;;;;;;5053464;28;20009;-57
2023/07/03 07:28:18;;;;;;;25.63;11.75;;;;;;;;;;5053558;28;20039;-60
2023/07/03 07:30:44;;;;;;;24.33;11.32;;;;;;;;;;5035743;28;20029;-59
2023/07/03 07:33:10;;;;;;;28.58;12.07;;;;;;;;;;5053374;28;20044;-60
2023/07/03 07:35:36;;;;;;;25.75;11.68;;;;;;;;;;5052925;28;20396;-60
2023/07/03 07:38:02;;;;;;;27.73;12.13;;;;;;;;;;5053091;28;20029;-57
2023/07/03 07:40:28;;;;;;;25.70;11.27;;;;;;;;;;5050119;28;20017;-60
2023/07/03 07:42:54;;;;;;;25.92;12.00;;;;;;;;;;5031752;28;20132;-59
2023/07/03 07:45:20;;;;;;;27.67;11.93;;;;;;;;;;5045767;28;20055;-59
2023/07/03 07:47:46;;;;;;;26.38;11.05;;;;;;;;;;5053229;28;20029;-60
2023/07/03 07:50:12;;;;;;;26.90;10.40;;;;;;;;;;5053138;28;20028;-59
2023/07/03 07:52:38;;;;;;;21.27;10.45;;;;;;;;;;5052463;28;20055;-60
2023/07/03 07:55:04;;;;;;;27.70;11.65;;;;;;;;;;5052380;28;20029;-54
2023/07/03 07:57:31;;;;;;;32.08;11.82;;;;;;;;;;5034868;28;20048;-54
2023/07/03 07:59:57;;;;;;;22.15;12.65;;;;;;;;;;5053135;28;20021;-55
2023/07/03 08:02:23;;;;;;;27.33;12.50;;;;;;;;;;5025643;28;20051;-55
2023/07/03 08:04:49;;;;;;;25.60;11.32;;;;;;;;;;5014824;28;20025;-54
2023/07/03 08:07:15;;;;;;;28.95;13.88;;;;;;;;;;5033065;28;20025;-54
2023/07/03 08:09:41;;;;;;;29.63;12.75;;;;;;;;;;5033191;28;20076;-51
2023/07/03 08:12:07;;;;;;;25.23;11.15;;;;;;;;;;5032712;28;20041;-56
2023/07/03 08:14:33;;;;;;;29.13;12.75;;;;;;;;;;5032300;28;20486;-53
2023/07/03 08:16:59;;;;;;;32.25;12.40;;;;;;;;;;5032473;28;20022;-51
2023/07/03 08:19:25;;;;;;;28.65;12.15;;;;;;;;;;5015105;28;20029;-55
2023/07/03 08:21:52;;;;;;;24.75;12.63;;;;;;;;;;5015137;28;20099;-55
2023/07/03 08:24:19;;;;;;;24.20;11.68;;;;;;;;;;5014547;28;20034;-52
2023/07/03 08:26:49;;;;;;;23.30;11.02;;;;;;;;;;5032568;28;20034;-54
2023/07/03 08:29:15;;;;;;;26.98;12.52;;;;;;;;;;5025385;28;20030;-57
2023/07/03 08:31:40;;;;;;;25.67;11.63;;;;;;;;;;5032281;28;20025;-57
2023/07/03 08:34:07;;;;;;;29.15;11.02;;;;;;;;;;5030946;28;20033;-55
2023/07/03 08:36:33;;;;;;;26.50;11.43;;;;;;;;;;5031956;28;20485;-57
2023/07/03 08:39:02;;;;;;;28.33;12.07;;;;;;;;;;5029612;28;20044;-57
2023/07/03 08:41:27;;;;;;;;;;;;;;;;;;5029699;28;20025;-60
2023/07/03 08:43:56;;;;;;;27.88;12.70;;;;;;;;;;5030348;28;19963;-53
2023/07/03 08:46:24;;;;;;;24.33;10.63;;;;;;;;;;5030713;28;20029;-54
2023/07/03 08:48:51;;;;;;;22.48;11.65;;;;;;;;;;5030317;28;20033;-54
2023/07/03 08:51:18;;;;;;;27.17;12.77;;;;;;;;;;5030382;28;20144;-55
2023/07/03 08:53:50;;;;;;;25.90;12.40;;;;;;;;;;5042741;28;20416;-55
2023/07/03 08:56:19;;;;;;;26.35;11.57;;;;;;;;;;5042617;28;20029;-52
2023/07/03 08:58:46;;;;;;;23.92;11.25;;;;;;;;;;5048256;28;20031;-55
2023/07/03 09:01:32;;;;;;;22.33;10.77;;;;;;;;;;5025027;28;20032;-58
2023/07/03 09:04:07;;;;;;;21.17;11.70;;;;;;;;;;5050544;28;20029;-57
2023/07/03 09:06:36;;;;;;;23.35;10.35;;;;;;;;;;5047223;28;20474;-51
2023/07/03 09:09:08;;;;;;;21.48;12.15;;;;;;;;;;5027385;28;20029;-55
2023/07/03 09:11:38;;;;;;;21.42;11.98;;;;;;;;;;5040067;28;20057;-57
2023/07/03 09:14:04;;;;;;;20.15;11.25;;;;;;;;;;5050351;28;20033;-56
2023/07/03 09:16:31;;;;;;;26.38;12.43;;;;;;;;;;5045226;28;20029;-59
2023/07/03 09:19:23;;;;;;;21.63;11.25;;;;;;;;;;5041822;28;20025;-57
2023/07/03 09:21:53;;;;;;;23.60;12.27;;;;;;;;;;5011278;28;20033;-57
2023/07/03 09:24:31;;;;;;;23.40;11.35;;;;;;;;;;5041922;28;20029;-55
2023/07/03 09:26:57;;;;;;;22.80;11.90;;;;;;;;;;5021438;28;20020;-56
2023/07/03 09:29:24;;;;;;;19.02;11.18;;;;;;;;;;5046034;28;20040;-54
2023/07/03 09:31:52;;;;;;;26.55;12.55;;;;;;;;;;5051490;28;20025;-54
2023/07/03 09:34:19;;;;;;;20.88;10.77;;;;;;;;;;5049790;28;20028;-54
2023/07/03 09:36:45;;;;;;;22.00;10.55;;;;;;;;;;5048036;28;20049;-55
2023/07/03 09:39:13;;;;;;;22.50;10.75;;;;;;;;;;5045821;28;20033;-58
2023/07/03 09:41:40;;;;;;;27.33;11.90;;;;;;;;;;5042547;28;20374;-55
2023/07/03 09:44:07;;;;;;;25.27;11.35;;;;;;;;;;5047963;28;20112;-56
2023/07/03 09:46:34;;;;;;;23.02;11.05;;;;;;;;;;5035346;28;20104;-53
2023/07/03 09:49:05;;;;;;;23.30;11.40;;;;;;;;;;5041804;28;20534;-58
2023/07/03 09:51:31;;;;;;;25.30;11.40;;;;;;;;;;5026705;28;20021;-53
2023/07/03 09:53:58;;;;;;;21.60;11.00;;;;;;;;;;5039736;28;20432;-54
2023/07/03 09:56:28;;;;;;;28.77;11.65;;;;;;;;;;5040096;28;20108;-55
2023/07/03 09:58:58;;;;;;;24.95;11.20;;;;;;;;;;5039446;28;20024;-58
2023/07/03 10:01:26;;;;;;;21.98;10.88;;;;;;;;;;5040025;28;20103;-55
2023/07/03 10:04:09;;;;;;;19.15;10.57;;;;;;;;;;5039697;28;20159;-57
2023/07/03 10:06:36;;;;;;;21.27;12.10;;;;;;;;;;5041445;28;20397;-53
2023/07/03 10:09:04;;;;;;;21.88;11.77;;;;;;;;;;5039157;28;20026;-58
2023/07/03 10:11:30;;;;;;;;;;;;;;;;;;5031961;28;20056;-58
2023/07/03 10:13:56;;;;;;;19.55;11.63;;;;;;;;;;5036743;28;20370;-56
2023/07/03 10:16:24;;;;;;;23.90;11.38;;;;;;;;;;5031212;28;20095;-55
2023/07/03 10:18:52;;;;;;;22.48;10.52;;;;;;;;;;5036324;28;20389;-51
2023/07/03 10:21:19;;;;;;;;;;;;;;;;;;5013211;28;20026;-53
2023/07/03 10:23:45;;;;;;;20.20;10.85;;;;;;;;;;5031017;28;19959;-52
2023/07/03 10:26:26;;;;;;;19.17;10.73;;;;;;;;;;5033182;28;20659;-58
2023/07/03 10:28:58;;;;;;;19.83;10.65;;;;;;;;;;5037348;28;20088;-55
2023/07/03 10:31:29;;;;;;;22.85;11.63;;;;;;;;;;5044261;28;20022;-54
2023/07/03 10:33:58;;;;;;;22.52;10.90;;;;;;;;;;5043102;28;20075;-54
2023/07/03 10:36:26;;;;;;;23.77;11.68;;;;;;;;;;5043873;28;20024;-56
2023/07/03 10:38:56;;;;;;;19.80;11.00;;;;;;;;;;5044891;28;20025;-49
2023/07/03 10:41:28;;;;;;;21.63;10.88;;;;;;;;;;5044194;28;20396;-51
2023/07/03 10:43:56;;;;;;;22.70;11.70;;;;;;;;;;5048922;28;20056;-53
2023/07/03 10:46:25;;;;;;;24.75;11.50;;;;;;;;;;5044471;28;20129;-50
2023/07/03 10:48:52;;;;;;;19.92;11.00;;;;;;;;;;5042987;28;20112;-51
2023/07/03 10:51:44;;;;;;;22.63;11.90;;;;;;;;;;5044015;28;20055;-51
2023/07/03 10:54:15;;;;;;;22.00;10.65;;;;;;;;;;5008745;28;20091;-49
2023/07/03 10:56:45;;;;;;;21.90;11.88;;;;;;;;;;5045084;28;20017;-56
2023/07/03 10:59:22;;;;;;;21.20;10.80;;;;;;;;;;5042287;28;20036;-53
2023/07/03 11:02:02;;;;;;;24.90;11.50;;;;;;;;;;5051620;28;20021;-51
2023/07/03 11:04:54;;;;;;;21.48;11.73;;;;;;;;;;5053580;28;20032;-51
2023/07/03 11:07:29;;;;;;;26.80;13.45;;;;;;;;;;5041402;28;20033;-51
2023/07/03 11:10:14;;;;;;;21.25;11.88;;;;;;;;;;5042046;28;20027;-52
2023/07/03 11:12:49;;;;;;;22.95;11.55;;;;;;;;;;5049659;28;20029;-51
2023/07/03 11:15:15;;;;;;;20.95;12.32;;;;;;;;;;5033960;28;20037;-55
2023/07/03 11:17:47;;;;;;;20.67;11.13;;;;;;;;;;5033832;28;20359;-50
2023/07/03 11:20:24;;;;;;;23.75;12.55;;;;;;;;;;5041641;28;20057;-55
2023/07/03 11:22:56;;;;;;;24.98;12.85;;;;;;;;;;5039060;28;20135;-54
2023/07/03 11:25:34;;;;;;;21.77;12.00;;;;;;;;;;5033843;28;20029;-53
2023/07/03 11:28:27;;;;;;;23.30;11.25;;;;;;;;;;5016678;28;20085;-56
2023/07/03 11:30:54;;;;;;;23.67;12.38;;;;;;;;;;5010689;28;20038;-54
2023/07/03 11:33:21;;;;;;;22.98;12.05;;;;;;;;;;5033668;28;20504;-52
2023/07/03 11:35:56;;;;;;;22.77;11.95;;;;;;;;;;5033223;28;20041;-51
2023/07/03 11:38:22;;;;;;;27.48;13.20;;;;;;;;;;5032899;28;20426;-54
2023/07/03 11:40:54;;;;;;;23.83;12.43;;;;;;;;;;5033887;28;20025;-54
2023/07/03 11:43:20;;;;;;;22.17;11.98;;;;;;;;;;5033597;28;20045;-56
2023/07/03 11:46:06;;;;;;;21.63;13.23;;;;;;;;;;5035969;28;20032;-55
2023/07/03 11:48:33;;;;;;;24.23;13.75;;;;;;;;;;5036086;28;20055;-53
2023/07/03 11:51:01;;;;;;;21.38;13.00;;;;;;;;;;5033310;28;20022;-55
2023/07/03 11:53:49;;;;;;;24.27;13.25;;;;;;;;;;5033216;28;20041;-53
2023/07/03 11:56:35;;;;;;;22.30;13.23;;;;;;;;;;5034174;28;20037;-56
2023/07/03 11:59:06;;;;;;;23.50;13.98;;;;;;;;;;5019253;28;20790;-55
2023/07/03 12:01:32;;;;;;;22.05;13.57;;;;;;;;;;5014871;28;20067;-56
2023/07/03 12:03:58;;;;;;;26.23;14.18;;;;;;;;;;5032432;28;20057;-56
2023/07/03 12:06:40;;;;;;;24.17;13.48;;;;;;;;;;5032721;28;20036;-57
2023/07/03 12:09:21;;;;;;;26.00;13.85;;;;;;;;;;5015111;28;20025;-59
2023/07/03 12:11:59;;;;;;;21.00;12.85;;;;;;;;;;5032238;28;20029;-55
2023/07/03 12:14:53;;;;;;;24.52;12.77;;;;;;;;;;5019660;28;20033;-58
2023/07/03 12:17:20;;;;;;;27.90;13.95;;;;;;;;;;5030767;28;20437;-54
2023/07/03 12:19:47;;;;;;;28.65;13.75;;;;;;;;;;5032478;28;20038;-58
2023/07/03 12:22:14;;;;;;;22.52;13.43;;;;;;;;;;5032357;28;20839;-58
2023/07/03 12:24:41;;;;;;;22.97;12.80;;;;;;;;;;5033443;28;20136;-59
2023/07/03 12:27:08;;;;;;;22.83;12.90;;;;;;;;;;5041635;28;20492;-58
2023/07/03 12:29:36;;;;;;;22.38;13.77;;;;;;;;;;5045928;28;20115;-55
2023/07/03 12:32:07;;;;;;;21.67;13.67;;;;;;;;;;5052487;28;20025;-53
2023/07/03 12:34:43;;;;;;;20.83;13.10;;;;;;;;;;5033417;28;20099;-56
2023/07/03 12:37:13;;;;;;;22.35;13.73;;;;;;;;;;5041449;28;20104;-53
2023/07/03 12:39:42;;;;;;;21.30;13.70;;;;;;;;;;5040727;28;20409;-52
2023/07/03 12:42:08;;;;;;;22.33;13.65;;;;;;;;;;5040407;28;20033;-56
2023/07/03 12:44:35;;;;;;;21.45;13.90;;;;;;;;;;5040463;28;20043;-54
2023/07/03 12:47:11;;;;;;;21.17;15.00;;;;;;;;;;5042059;28;20096;-55
2023/07/03 12:49:48;;;;;;;20.85;14.43;;;;;;;;;;5042799;28;20024;-56
2023/07/03 12:52:14;;;;;;;21.95;13.88;;;;;;;;;;5042220;28;20040;-54
2023/07/03 12:54:40;;;;;;;22.67;14.88;;;;;;;;;;5040801;28;20433;-57
2023/07/03 12:57:09;;;;;;;23.88;14.50;;;;;;;;;;5044495;28;20150;-58
2023/07/03 12:59:35;;;;;;;21.00;14.02;;;;;;;;;;5043099;28;20025;-54
2023/07/03 13:02:02;;;;;;;22.73;14.60;;;;;;;;;;5040972;28;20398;-56
2023/07/03 13:04:32;;;;;;;20.65;14.50;;;;;;;;;;5040457;28;20049;-56
2023/07/03 13:06:58;;;;;;;25.48;15.25;;;;;;;;;;5036364;28;20535;-56
2023/07/03 13:09:25;;;;;;;21.92;13.77;;;;;;;;;;5032285;28;20021;-58
2023/07/03 13:11:51;;;;;;;23.50;13.80;;;;;;;;;;5032073;28;20022;-55
2023/07/03 13:14:17;;;;;;;26.60;14.52;;;;;;;;;;5031941;28;20086;-54
2023/07/03 13:16:45;;;;;;;21.23;14.07;;;;;;;;;;5031527;28;20053;-53
2023/07/03 13:19:11;;;;;;;23.73;14.43;;;;;;;;;;5042086;28;20100;-57
2023/07/03 13:21:38;;;;;;;21.90;13.70;;;;;;;;;;5045651;28;20397;-59
2023/07/03 13:24:05;;;;;;;22.50;14.88;;;;;;;;;;5032421;28;20483;-55
2023/07/03 13:26:31;;;;;;;25.35;14.95;;;;;;;;;;5042770;28;20199;-56
2023/07/03 13:28:59;;;;;;;22.38;14.55;;;;;;;;;;5040932;28;20545;-58
2023/07/03 13:31:26;;;;;;;21.40;14.75;;;;;;;;;;5029856;28;20104;-58
2023/07/03 13:34:01;;;;;;;26.10;15.10;;;;;;;;;;5050895;28;20512;-55
2023/07/03 13:36:29;;;;;;;21.42;15.05;;;;;;;;;;5033532;28;20056;-55
2023/07/03 13:39:02;;;;;;;19.80;13.82;;;;;;;;;;5051137;28;20028;-56
2023/07/03 13:41:28;;;;;;;22.25;14.13;;;;;;;;;;5051023;28;20056;-55
2023/07/03 13:43:57;;;;;;;23.13;14.75;;;;;;;;;;5051227;28;20043;-59
2023/07/03 13:46:24;;;;;;;21.08;14.88;;;;;;;;;;5051241;28;20025;-58
2023/07/03 13:48:50;;;;;;;27.70;15.13;;;;;;;;;;5050737;28;20029;-59
2023/07/03 13:51:16;;;;;;;22.50;14.07;;;;;;;;;;5033465;28;20027;-60
2023/07/03 13:53:42;;;;;;;22.00;14.50;;;;;;;;;;5051357;28;20033;-59
2023/07/03 13:56:08;;;;;;;20.30;13.70;;;;;;;;;;5051731;28;20025;-53
2023/07/03 13:58:34;;;;;;;21.95;14.10;;;;;;;;;;5045599;28;20029;-55
2023/07/03 14:01:00;;;;;;;20.77;13.40;;;;;;;;;;5044768;28;20017;-58
2023/07/03 14:03:26;;;;;;;23.75;13.82;;;;;;;;;;5055250;28;20017;-54
2023/07/03 14:05:52;;;;;;;22.10;14.35;;;;;;;;;;5054497;28;20040;-56
2023/07/03 14:08:18;;;;;;;20.98;13.48;;;;;;;;;;5045409;28;20094;-58
2023/07/03 14:10:44;;;;;;;21.58;13.70;;;;;;;;;;5047644;28;20044;-56
2023/07/03 14:13:10;;;;;;;20.65;13.20;;;;;;;;;;5043648;28;20029;-57
2023/07/03 14:15:37;;;;;;;23.67;13.52;;;;;;;;;;5045051;28;20029;-54
2023/07/03 14:18:04;;;;;;;20.83;13.05;;;;;;;;;;5043197;28;20021;-57
2023/07/03 14:20:30;;;;;;;21.73;13.10;;;;;;;;;;5042059;28;20022;-53
2023/07/03 14:22:56;;;;;;;21.00;12.88;;;;;;;;;;5045652;28;20025;-57